Darstellungsparameter: Aktuell verwendete Einstellungen:
Skalierung der Graphiken ... ?
xyx+y,   Skalierungsfaktor:      Skalierung: Modus: x, Faktor: 1
Darstellungszeitraum ... ?
Vom - - bis: - -   Zeitraum: 08.10.2021 - 08.10.2021
Min/Max/Avg-Anzeige ... ?
Zeige MMA aktuell
Zeige MMA Monat
Zeige MMA alles
Zeige --A aktuell
Zeige --A Monat
Zeige --A alles
Keine MMA-Anzeige
MMA:
Average (ber die Originaldaten)
MMA-Basis: 08.10.2021 - 08.10.2021
Quicknavigation für Darstellung... ?
Tage:      1T, 2T, 3T, 5T -1T -2T -3T -5T +1T +2T +3T +5T
Wochen: 1W, 2W, 3W -1W -2W -3W +1W +2W +3W
Monate: 1M, 3M, 6M -1M -3M -6M +1M +3M +6M
Jahre:    1J, 3J, 5J, 10J -1J -3J -5J -10J +1J +3J +5J +10J
Nutze für die Darstellung ... ?
Originaldaten oder Mittelwerte auf ...
Stundenbasis Tagesbasis Wochenbasis
Monatsbasis Jahresbasis      Datenbasis: Original-Daten
Darstellen als:
Statistik (Auto) Statistik J:M      Darstellung:
Zur Graphik,    zurück zur Übersicht aller Sensoren.
 
Tabellarische Datenbersicht: ?
 
Sensor: Nr:Datum:Temp:Abs-Feuchte:Windchill:Wind:
Aussen-T/F 1 08-10-2021 00:00:00 8 C 7.77 g/m*3 8 C 0 km/h
2 08-10-2021 00:05:00 7.9 C 7.8 g/m*3 7.9 C 0 km/h
3 08-10-2021 00:10:00 7.9 C 7.8 g/m*3 7.9 C 0 km/h
4 08-10-2021 00:15:00 7.9 C 7.8 g/m*3 7.9 C 0 km/h
5 08-10-2021 00:20:00 7.8 C 7.67 g/m*3 7.8 C 0 km/h
6 08-10-2021 00:25:00 7.8 C 7.67 g/m*3 7.8 C 0 km/h
7 08-10-2021 00:30:00 7.7 C 7.62 g/m*3 7.7 C 0 km/h
8 08-10-2021 00:35:00 7.7 C 7.62 g/m*3 7.7 C 0 km/h
9 08-10-2021 00:40:00 7.6 C 7.65 g/m*3 7.6 C 0 km/h
10 08-10-2021 00:45:00 7.6 C 7.65 g/m*3 7.6 C 0 km/h
11 08-10-2021 00:50:00 7.6 C 7.65 g/m*3 7.6 C 0 km/h
12 08-10-2021 00:55:00 7.5 C 7.6 g/m*3 7.5 C 0 km/h
13 08-10-2021 01:00:00 7.5 C 7.6 g/m*3 7.5 C 0 km/h
14 08-10-2021 01:05:00 7.4 C 7.55 g/m*3 7.4 C 0 km/h
15 08-10-2021 01:10:00 7.4 C 7.55 g/m*3 7.4 C 0 km/h
16 08-10-2021 01:15:00 7.4 C 7.55 g/m*3 7.4 C 0 km/h
17 08-10-2021 01:20:00 7.4 C 7.55 g/m*3 7.4 C 0 km/h
18 08-10-2021 01:25:00 7.3 C 7.51 g/m*3 7.3 C 0 km/h
19 08-10-2021 01:30:00 7.2 C 7.46 g/m*3 7.2 C 0 km/h
20 08-10-2021 01:35:00 7.2 C 7.46 g/m*3 7.2 C 0 km/h
21 08-10-2021 01:40:00 7.2 C 7.46 g/m*3 7.2 C 0 km/h
22 08-10-2021 01:45:00 7.1 C 7.41 g/m*3 7.1 C 0 km/h
23 08-10-2021 01:50:00 7.1 C 7.41 g/m*3 7.1 C 0 km/h
24 08-10-2021 01:55:00 7.1 C 7.41 g/m*3 7.1 C 0 km/h
25 08-10-2021 02:00:00 7.1 C 7.41 g/m*3 7.1 C 0 km/h
Sensor: Nr:Datum:Temp:Abs-Feuchte:Windchill:Wind:
Aussen-T/F 26 08-10-2021 02:05:00 7.2 C 7.46 g/m*3 7.2 C 0 km/h
27 08-10-2021 02:10:00 7.2 C 7.46 g/m*3 7.2 C 0 km/h
28 08-10-2021 02:15:00 7.2 C 7.46 g/m*3 7.2 C 0 km/h
29 08-10-2021 02:20:00 7.2 C 7.46 g/m*3 7.2 C 0 km/h
30 08-10-2021 02:25:00 7.3 C 7.51 g/m*3 7.3 C 0 km/h
31 08-10-2021 02:30:00 7.3 C 7.51 g/m*3 7.3 C 0 km/h
32 08-10-2021 02:35:00 7.4 C 7.63 g/m*3 7.4 C 0 km/h
33 08-10-2021 02:40:00 7.5 C 7.68 g/m*3 7.5 C 0 km/h
34 08-10-2021 02:45:00 7.7 C 7.78 g/m*3 7.7 C 0 km/h
35 08-10-2021 02:50:00 7.8 C 7.83 g/m*3 7.8 C 0 km/h
36 08-10-2021 02:55:00 7.8 C 7.83 g/m*3 7.8 C 0 km/h
37 08-10-2021 03:00:00 7.9 C 7.89 g/m*3 7.9 C 0 km/h
38 08-10-2021 03:05:00 7.9 C 7.89 g/m*3 7.9 C 0 km/h
39 08-10-2021 03:10:00 7.9 C 7.89 g/m*3 7.9 C 0 km/h
40 08-10-2021 03:15:00 8 C 7.94 g/m*3 8 C 0 km/h
41 08-10-2021 03:20:00 8 C 7.94 g/m*3 8 C 0 km/h
42 08-10-2021 03:25:00 8 C 7.94 g/m*3 8 C 0 km/h
43 08-10-2021 03:30:00 8.1 C 7.99 g/m*3 8.1 C 0 km/h
44 08-10-2021 03:35:00 8.1 C 7.99 g/m*3 8.1 C 0 km/h
45 08-10-2021 03:40:00 8.1 C 7.99 g/m*3 8.1 C 0 km/h
46 08-10-2021 03:45:00 8.1 C 7.99 g/m*3 8.1 C 0 km/h
47 08-10-2021 03:50:00 8.1 C 7.99 g/m*3 8.1 C 0 km/h
48 08-10-2021 03:55:00 8.1 C 7.99 g/m*3 8.1 C 0 km/h
49 08-10-2021 04:00:00 8.1 C 7.99 g/m*3 8.1 C 0 km/h
50 08-10-2021 04:05:00 8.1 C 7.99 g/m*3 8.1 C 0 km/h
Sensor: Nr:Datum:Temp:Abs-Feuchte:Windchill:Wind:
Aussen-T/F 51 08-10-2021 04:10:00 8.1 C 7.99 g/m*3 8.1 C 0 km/h
52 08-10-2021 04:15:00 8.1 C 7.99 g/m*3 8.1 C 0 km/h
53 08-10-2021 04:20:00 8.1 C 7.99 g/m*3 8.1 C 0 km/h
54 08-10-2021 04:25:00 8.2 C 8.04 g/m*3 8.2 C 0 km/h
55 08-10-2021 04:30:00 8.2 C 8.04 g/m*3 8.2 C 1.6 km/h
56 08-10-2021 04:35:00 8.2 C 8.04 g/m*3 8.2 C 0 km/h
57 08-10-2021 04:40:00 8.2 C 8.04 g/m*3 8.2 C 0 km/h
58 08-10-2021 04:45:00 8.2 C 8.04 g/m*3 8.2 C 0 km/h
59 08-10-2021 04:50:00 8.2 C 8.04 g/m*3 8.2 C 0 km/h
60 08-10-2021 04:55:00 8.2 C 8.04 g/m*3 8.2 C 0 km/h
61 08-10-2021 05:00:00 8.2 C 8.04 g/m*3 8.2 C 0 km/h
62 08-10-2021 05:05:00 8.2 C 8.04 g/m*3 8.2 C 0 km/h
63 08-10-2021 05:10:00 8.2 C 8.04 g/m*3 8.2 C 0 km/h
64 08-10-2021 05:15:00 8.1 C 7.99 g/m*3 8.1 C 0 km/h
65 08-10-2021 05:20:00 8.1 C 7.99 g/m*3 8.1 C 0 km/h
66 08-10-2021 05:25:00 8.1 C 7.99 g/m*3 8.1 C 0 km/h
67 08-10-2021 05:30:00 8.1 C 7.99 g/m*3 8.1 C 0 km/h
68 08-10-2021 05:35:00 8.1 C 7.99 g/m*3 8.1 C 0 km/h
69 08-10-2021 05:40:00 8.1 C 7.99 g/m*3 8.1 C 0 km/h
70 08-10-2021 05:45:00 8.1 C 7.99 g/m*3 8.1 C 0 km/h
71 08-10-2021 05:50:00 8.1 C 7.99 g/m*3 8.1 C 1.6 km/h
72 08-10-2021 05:55:00 8.1 C 7.99 g/m*3 8.1 C 0 km/h
73 08-10-2021 06:00:00 8.1 C 7.99 g/m*3 8.1 C 1.6 km/h
74 08-10-2021 06:05:00 8.1 C 7.99 g/m*3 8.1 C 0 km/h
75 08-10-2021 06:10:00 8 C 7.94 g/m*3 8 C 0 km/h
Sensor: Nr:Datum:Temp:Abs-Feuchte:Windchill:Wind:
Aussen-T/F 76 08-10-2021 06:15:00 8 C 7.94 g/m*3 8 C 0 km/h
77 08-10-2021 06:20:00 8 C 8.02 g/m*3 8 C 0 km/h
78 08-10-2021 06:25:00 8 C 8.02 g/m*3 8 C 0 km/h
79 08-10-2021 06:30:00 8 C 8.02 g/m*3 8 C 0 km/h
80 08-10-2021 06:35:00 8 C 8.02 g/m*3 8 C 0 km/h
81 08-10-2021 06:40:00 7.9 C 7.97 g/m*3 7.9 C 0 km/h
82 08-10-2021 06:45:00 7.9 C 7.97 g/m*3 7.9 C 0 km/h
83 08-10-2021 06:50:00 8 C 8.02 g/m*3 8 C 0 km/h
84 08-10-2021 06:55:00 7.9 C 7.97 g/m*3 7.9 C 0 km/h
85 08-10-2021 07:00:00 7.9 C 7.97 g/m*3 7.9 C 0 km/h
86 08-10-2021 07:05:00 8 C 8.02 g/m*3 8 C 0 km/h
87 08-10-2021 07:10:00 8 C 8.02 g/m*3 8 C 0 km/h
88 08-10-2021 07:15:00 8 C 7.94 g/m*3 8 C 1.6 km/h
89 08-10-2021 07:20:00 7.9 C 7.97 g/m*3 7.9 C 1.6 km/h
90 08-10-2021 07:25:00 7.9 C 7.97 g/m*3 7.9 C 0 km/h
91 08-10-2021 07:30:00 7.9 C 7.89 g/m*3 7.9 C 0 km/h
92 08-10-2021 07:35:00 7.9 C 7.89 g/m*3 7.9 C 0 km/h
93 08-10-2021 07:40:00 7.9 C 7.89 g/m*3 7.9 C 0 km/h
94 08-10-2021 07:45:00 7.9 C 7.89 g/m*3 7.9 C 0 km/h
95 08-10-2021 07:50:00 7.9 C 7.89 g/m*3 7.9 C 0 km/h
96 08-10-2021 07:55:00 7.9 C 7.89 g/m*3 7.9 C 0 km/h
97 08-10-2021 08:00:00 7.9 C 7.97 g/m*3 7.9 C 0 km/h
98 08-10-2021 08:05:00 7.9 C 7.97 g/m*3 7.9 C 0 km/h
99 08-10-2021 08:10:00 7.9 C 7.97 g/m*3 7.9 C 0 km/h
100 08-10-2021 08:15:00 8 C 8.02 g/m*3 8 C 0 km/h
Sensor: Nr:Datum:Temp:Abs-Feuchte:Windchill:Wind:
Aussen-T/F 101 08-10-2021 08:20:00 8.1 C 8.07 g/m*3 8.1 C 0 km/h
102 08-10-2021 08:25:00 8.1 C 8.07 g/m*3 8.1 C 0 km/h
103 08-10-2021 08:30:00 8.1 C 8.07 g/m*3 8.1 C 1.6 km/h
104 08-10-2021 08:35:00 8.1 C 8.07 g/m*3 8.1 C 1.6 km/h
105 08-10-2021 08:40:00 8.1 C 8.07 g/m*3 8.1 C 0 km/h
106 08-10-2021 08:45:00 8.1 C 8.07 g/m*3 8.1 C 0 km/h
107 08-10-2021 08:50:00 8.2 C 8.12 g/m*3 8.2 C 0 km/h
108 08-10-2021 08:55:00 8.2 C 8.12 g/m*3 8.2 C 0 km/h
109 08-10-2021 09:00:00 8.3 C 8.18 g/m*3 8.3 C 0 km/h
110 08-10-2021 09:05:00 8.3 C 8.18 g/m*3 8.3 C 0 km/h
111 08-10-2021 09:10:00 8.4 C 8.23 g/m*3 8.4 C 3.2 km/h
112 08-10-2021 09:15:00 8.4 C 8.23 g/m*3 8.4 C 3.2 km/h
113 08-10-2021 09:20:00 8.4 C 8.23 g/m*3 8.4 C 0 km/h
114 08-10-2021 09:25:00 8.4 C 8.23 g/m*3 8.4 C 0 km/h
115 08-10-2021 09:30:00 8.5 C 8.28 g/m*3 8.5 C 1.6 km/h
116 08-10-2021 09:35:00 8.6 C 8.34 g/m*3 8.6 C 0 km/h
117 08-10-2021 09:40:00 8.6 C 8.34 g/m*3 8.6 C 3.2 km/h
118 08-10-2021 09:45:00 8.6 C 8.34 g/m*3 8.6 C 1.6 km/h
119 08-10-2021 09:50:00 8.6 C 8.34 g/m*3 8.6 C 1.6 km/h
120 08-10-2021 09:55:00 8.6 C 8.34 g/m*3 8.6 C 3.2 km/h
121 08-10-2021 10:00:00 8.8 C 8.44 g/m*3 8.8 C 3.2 km/h
122 08-10-2021 10:05:00 8.9 C 8.5 g/m*3 8.9 C 4.8 km/h
123 08-10-2021 10:10:00 8.9 C 8.5 g/m*3 8.9 C 4.8 km/h
124 08-10-2021 10:15:00 8.9 C 8.5 g/m*3 8.9 C 1.6 km/h
125 08-10-2021 10:20:00 8.9 C 8.5 g/m*3 8.9 C 1.6 km/h
Sensor: Nr:Datum:Temp:Abs-Feuchte:Windchill:Wind:
Aussen-T/F 126 08-10-2021 10:25:00 8.9 C 8.5 g/m*3 8.9 C 3.2 km/h
127 08-10-2021 10:30:00 8.8 C 8.44 g/m*3 8.8 C 1.6 km/h
128 08-10-2021 10:35:00 8.8 C 8.44 g/m*3 8.8 C 1.6 km/h
129 08-10-2021 10:40:00 8.9 C 8.5 g/m*3 8.9 C 3.2 km/h
130 08-10-2021 10:45:00 8.9 C 8.5 g/m*3 8.9 C 1.6 km/h
131 08-10-2021 10:50:00 8.8 C 8.44 g/m*3 8.8 C 1.6 km/h
132 08-10-2021 10:55:00 8.9 C 8.5 g/m*3 8.9 C 4.8 km/h
133 08-10-2021 11:00:00 8.9 C 8.5 g/m*3 8.9 C 1.6 km/h
134 08-10-2021 11:05:00 8.9 C 8.5 g/m*3 8.9 C 3.2 km/h
135 08-10-2021 11:10:00 9.1 C 8.61 g/m*3 9.1 C 1.6 km/h
136 08-10-2021 11:15:00 9.2 C 8.66 g/m*3 9.2 C 4.8 km/h
137 08-10-2021 11:20:00 9.2 C 8.66 g/m*3 9.2 C 3.2 km/h
138 08-10-2021 11:25:00 9.2 C 8.66 g/m*3 9.2 C 4.8 km/h
139 08-10-2021 11:30:00 9.3 C 8.72 g/m*3 9.3 C 3.2 km/h
140 08-10-2021 11:35:00 9.3 C 8.72 g/m*3 9.3 C 4.8 km/h
141 08-10-2021 11:40:00 9.3 C 8.72 g/m*3 9.3 C 3.2 km/h
142 08-10-2021 11:45:00 9.3 C 8.72 g/m*3 9.3 C 1.6 km/h
143 08-10-2021 11:50:00 9.4 C 8.77 g/m*3 9.4 C 4.8 km/h
144 08-10-2021 11:55:00 9.6 C 8.89 g/m*3 9.6 C 3.2 km/h
145 08-10-2021 12:00:00 9.7 C 8.94 g/m*3 9.7 C 3.2 km/h
146 08-10-2021 12:05:00 9.8 C 9 g/m*3 9.8 C 3.2 km/h
147 08-10-2021 12:10:00 9.8 C 9 g/m*3 9.8 C 4.8 km/h
148 08-10-2021 12:15:00 9.8 C 9 g/m*3 9.8 C 1.6 km/h
149 08-10-2021 12:20:00 9.9 C 9.06 g/m*3 9.9 C 0 km/h
150 08-10-2021 12:25:00 10.1 C 9.17 g/m*3 10.1 C 0 km/h
Sensor: Nr:Datum:Temp:Abs-Feuchte:Windchill:Wind:
Aussen-T/F 151 08-10-2021 12:30:00 10.2 C 9.23 g/m*3 10.2 C 1.6 km/h
152 08-10-2021 12:35:00 10.3 C 9.29 g/m*3 10.3 C 1.6 km/h
153 08-10-2021 12:40:00 10.5 C 9.41 g/m*3 10.5 C 0 km/h
154 08-10-2021 12:45:00 10.6 C 9.57 g/m*3 10.6 C 0 km/h
155 08-10-2021 12:50:00 10.7 C 9.53 g/m*3 10.7 C 1.6 km/h
156 08-10-2021 12:55:00 10.8 C 9.59 g/m*3 10.8 C 0 km/h
157 08-10-2021 13:00:00 11 C 9.81 g/m*3 11 C 0 km/h
158 08-10-2021 13:05:00 11.1 C 9.77 g/m*3 11.1 C 1.6 km/h
159 08-10-2021 13:10:00 11.3 C 10 g/m*3 11.3 C 1.6 km/h
160 08-10-2021 13:15:00 11.4 C 9.96 g/m*3 11.4 C 0 km/h
161 08-10-2021 13:20:00 11.8 C 10.21 g/m*3 11.8 C 0 km/h
162 08-10-2021 13:25:00 12.2 C 10.58 g/m*3 12.2 C 0 km/h
163 08-10-2021 13:30:00 12.2 C 10.47 g/m*3 12.2 C 0 km/h
164 08-10-2021 13:35:00 12.2 C 10.47 g/m*3 12.2 C 0 km/h
165 08-10-2021 13:40:00 12.2 C 10.58 g/m*3 12.2 C 0 km/h
166 08-10-2021 13:45:00 12.2 C 10.47 g/m*3 12.2 C 0 km/h
167 08-10-2021 13:50:00 12.1 C 10.4 g/m*3 12.1 C 0 km/h
168 08-10-2021 13:55:00 12.2 C 10.47 g/m*3 12.2 C 0 km/h
169 08-10-2021 14:00:00 12.2 C 10.47 g/m*3 12.2 C 0 km/h
170 08-10-2021 14:05:00 12.4 C 10.6 g/m*3 12.4 C 0 km/h
171 08-10-2021 14:10:00 12.6 C 10.73 g/m*3 12.6 C 0 km/h
172 08-10-2021 14:15:00 12.8 C 10.87 g/m*3 12.8 C 0 km/h
173 08-10-2021 14:20:00 13.1 C 11.07 g/m*3 13.1 C 0 km/h
174 08-10-2021 14:25:00 13.3 C 11.21 g/m*3 13.3 C 0 km/h
175 08-10-2021 14:30:00 13.4 C 11.28 g/m*3 13.4 C 1.6 km/h
Sensor: Nr:Datum:Temp:Abs-Feuchte:Windchill:Wind:
Aussen-T/F 176 08-10-2021 14:35:00 13.8 C 11.56 g/m*3 13.8 C 0 km/h
177 08-10-2021 14:40:00 14.2 C 11.84 g/m*3 14.2 C 0 km/h
178 08-10-2021 14:45:00 14.3 C 11.92 g/m*3 14.3 C 0 km/h
179 08-10-2021 14:50:00 14.4 C 11.99 g/m*3 14.4 C 0 km/h
180 08-10-2021 14:55:00 14.5 C 11.94 g/m*3 14.5 C 0 km/h
181 08-10-2021 15:00:00 14.5 C 11.94 g/m*3 14.5 C 1.6 km/h
182 08-10-2021 15:05:00 14.4 C 11.74 g/m*3 14.4 C 1.6 km/h
183 08-10-2021 15:10:00 14.4 C 11.74 g/m*3 14.4 C 3.2 km/h
184 08-10-2021 15:15:00 14.4 C 11.37 g/m*3 14.4 C 3.2 km/h
185 08-10-2021 15:20:00 14.6 C 11.14 g/m*3 14.6 C 9.7 km/h
186 08-10-2021 15:25:00 15.2 C 11.42 g/m*3 15.2 C 6.4 km/h
187 08-10-2021 15:30:00 15.6 C 11.3 g/m*3 15.6 C 6.4 km/h
188 08-10-2021 15:35:00 15.9 C 11.1 g/m*3 15.9 C 8.1 km/h
189 08-10-2021 15:40:00 16.4 C 11.03 g/m*3 16.4 C 9.7 km/h
190 08-10-2021 15:45:00 16.7 C 10.94 g/m*3 16.7 C 9.7 km/h
191 08-10-2021 15:50:00 17 C 10.71 g/m*3 17 C 9.7 km/h
192 08-10-2021 15:55:00 17.2 C 10.54 g/m*3 17.2 C 12.9 km/h
193 08-10-2021 16:00:00 17.3 C 10.75 g/m*3 17.3 C 9.7 km/h
194 08-10-2021 16:05:00 17.3 C 10.61 g/m*3 17.3 C 9.7 km/h
195 08-10-2021 16:10:00 17.5 C 10.59 g/m*3 17.5 C 12.9 km/h
196 08-10-2021 16:15:00 17.6 C 10.65 g/m*3 17.6 C 12.9 km/h
197 08-10-2021 16:20:00 17.5 C 10.73 g/m*3 17.5 C 8.1 km/h
198 08-10-2021 16:25:00 17.5 C 11.18 g/m*3 17.5 C 4.8 km/h
199 08-10-2021 16:30:00 17.4 C 11.56 g/m*3 17.4 C 3.2 km/h
200 08-10-2021 16:35:00 17.2 C 10.69 g/m*3 17.2 C 6.4 km/h
Sensor: Nr:Datum:Temp:Abs-Feuchte:Windchill:Wind:
Aussen-T/F 201 08-10-2021 16:40:00 17.1 C 10.63 g/m*3 17.1 C 8.1 km/h
202 08-10-2021 16:45:00 17.1 C 10.48 g/m*3 17.1 C 14.5 km/h
203 08-10-2021 16:50:00 17.2 C 11.13 g/m*3 17.2 C 4.8 km/h
204 08-10-2021 16:55:00 17.2 C 11.28 g/m*3 17.2 C 1.6 km/h
205 08-10-2021 17:00:00 17.1 C 10.92 g/m*3 17.1 C 4.8 km/h
206 08-10-2021 17:05:00 16.9 C 11.22 g/m*3 16.9 C 4.8 km/h
207 08-10-2021 17:10:00 16.8 C 11.01 g/m*3 16.8 C 1.6 km/h
208 08-10-2021 17:15:00 16.7 C 10.66 g/m*3 16.7 C 6.4 km/h
209 08-10-2021 17:20:00 16.9 C 10.79 g/m*3 16.9 C 4.8 km/h
210 08-10-2021 17:25:00 17.1 C 10.77 g/m*3 17.1 C 6.4 km/h
211 08-10-2021 17:30:00 17.1 C 10.92 g/m*3 17.1 C 4.8 km/h
212 08-10-2021 17:35:00 17.1 C 11.21 g/m*3 17.1 C 1.6 km/h
213 08-10-2021 17:40:00 17.1 C 11.21 g/m*3 17.1 C 3.2 km/h
214 08-10-2021 17:45:00 17.1 C 11.06 g/m*3 17.1 C 1.6 km/h
215 08-10-2021 17:50:00 17.3 C 11.49 g/m*3 17.3 C 0 km/h
216 08-10-2021 17:55:00 17.6 C 11.7 g/m*3 17.6 C 0 km/h
217 08-10-2021 18:00:00 17.7 C 11.62 g/m*3 17.7 C 0 km/h
218 08-10-2021 18:05:00 17.7 C 11.47 g/m*3 17.7 C 0 km/h
219 08-10-2021 18:10:00 17.5 C 11.33 g/m*3 17.5 C 3.2 km/h
220 08-10-2021 18:15:00 17.3 C 11.2 g/m*3 17.3 C 1.6 km/h
221 08-10-2021 18:20:00 16.9 C 11.08 g/m*3 16.9 C 3.2 km/h
222 08-10-2021 18:25:00 16.5 C 10.95 g/m*3 16.5 C 1.6 km/h
223 08-10-2021 18:30:00 16.1 C 10.83 g/m*3 16.1 C 3.2 km/h
224 08-10-2021 18:35:00 15.7 C 10.7 g/m*3 15.7 C 1.6 km/h
225 08-10-2021 18:40:00 15.3 C 10.58 g/m*3 15.3 C 1.6 km/h
Sensor: Nr:Datum:Temp:Abs-Feuchte:Windchill:Wind:
Aussen-T/F 226 08-10-2021 18:45:00 14.8 C 10.26 g/m*3 14.8 C 4.8 km/h
227 08-10-2021 18:50:00 14.5 C 10.32 g/m*3 14.5 C 0 km/h
228 08-10-2021 18:55:00 14.2 C 10.26 g/m*3 14.2 C 0 km/h
229 08-10-2021 19:00:00 13.9 C 10.19 g/m*3 13.9 C 1.6 km/h
230 08-10-2021 19:05:00 13.7 C 10.07 g/m*3 13.7 C 0 km/h
231 08-10-2021 19:10:00 13.4 C 10 g/m*3 13.4 C 1.6 km/h
232 08-10-2021 19:15:00 13.2 C 9.87 g/m*3 13.2 C 1.6 km/h
233 08-10-2021 19:20:00 13.1 C 9.93 g/m*3 13.1 C 0 km/h
234 08-10-2021 19:25:00 12.9 C 9.81 g/m*3 12.9 C 1.6 km/h
235 08-10-2021 19:30:00 12.7 C 9.8 g/m*3 12.7 C 1.6 km/h
236 08-10-2021 19:35:00 12.6 C 9.74 g/m*3 12.6 C 1.6 km/h
237 08-10-2021 19:40:00 12.5 C 9.78 g/m*3 12.5 C 1.6 km/h
238 08-10-2021 19:45:00 12.4 C 9.72 g/m*3 12.4 C 1.6 km/h
239 08-10-2021 19:50:00 12.3 C 9.66 g/m*3 12.3 C 0 km/h
240 08-10-2021 19:55:00 12.2 C 9.6 g/m*3 12.2 C 3.2 km/h
241 08-10-2021 20:00:00 12.1 C 9.65 g/m*3 12.1 C 0 km/h
242 08-10-2021 20:05:00 12.1 C 9.65 g/m*3 12.1 C 0 km/h
243 08-10-2021 20:10:00 12 C 9.59 g/m*3 12 C 0 km/h
244 08-10-2021 20:15:00 11.9 C 9.53 g/m*3 11.9 C 1.6 km/h
245 08-10-2021 20:20:00 11.8 C 9.58 g/m*3 11.8 C 0 km/h
246 08-10-2021 20:25:00 11.8 C 9.58 g/m*3 11.8 C 1.6 km/h
247 08-10-2021 20:30:00 11.7 C 9.52 g/m*3 11.7 C 0 km/h
248 08-10-2021 20:35:00 11.7 C 9.52 g/m*3 11.7 C 0 km/h
249 08-10-2021 20:40:00 11.6 C 9.46 g/m*3 11.6 C 0 km/h
250 08-10-2021 20:45:00 11.4 C 9.34 g/m*3 11.4 C 0 km/h
Sensor: Nr:Datum:Temp:Abs-Feuchte:Windchill:Wind:
Aussen-T/F 251 08-10-2021 20:50:00 11.3 C 9.28 g/m*3 11.3 C 0 km/h
252 08-10-2021 20:55:00 11.2 C 9.22 g/m*3 11.2 C 0 km/h
253 08-10-2021 21:00:00 11 C 9.11 g/m*3 11 C 0 km/h
254 08-10-2021 21:05:00 10.9 C 9.05 g/m*3 10.9 C 0 km/h
255 08-10-2021 21:10:00 10.8 C 8.99 g/m*3 10.8 C 1.6 km/h
256 08-10-2021 21:15:00 10.8 C 9.09 g/m*3 10.8 C 0 km/h
257 08-10-2021 21:20:00 10.7 C 9.04 g/m*3 10.7 C 0 km/h
258 08-10-2021 21:25:00 10.7 C 9.04 g/m*3 10.7 C 0 km/h
259 08-10-2021 21:30:00 10.6 C 8.98 g/m*3 10.6 C 0 km/h
260 08-10-2021 21:35:00 10.6 C 8.98 g/m*3 10.6 C 0 km/h
261 08-10-2021 21:40:00 10.4 C 8.87 g/m*3 10.4 C 0 km/h
262 08-10-2021 21:45:00 10.4 C 8.87 g/m*3 10.4 C 0 km/h
263 08-10-2021 21:50:00 10.3 C 8.81 g/m*3 10.3 C 0 km/h
264 08-10-2021 21:55:00 10.2 C 8.76 g/m*3 10.2 C 0 km/h
265 08-10-2021 22:00:00 10.1 C 8.79 g/m*3 10.1 C 0 km/h
266 08-10-2021 22:05:00 10.1 C 8.79 g/m*3 10.1 C 0 km/h
267 08-10-2021 22:10:00 10 C 8.74 g/m*3 10 C 0 km/h
268 08-10-2021 22:15:00 9.9 C 8.68 g/m*3 9.9 C 0 km/h
269 08-10-2021 22:20:00 9.8 C 8.63 g/m*3 9.8 C 0 km/h
270 08-10-2021 22:25:00 9.8 C 8.63 g/m*3 9.8 C 0 km/h
271 08-10-2021 22:30:00 9.7 C 8.57 g/m*3 9.7 C 0 km/h
272 08-10-2021 22:35:00 9.6 C 8.52 g/m*3 9.6 C 0 km/h
273 08-10-2021 22:40:00 9.6 C 8.52 g/m*3 9.6 C 0 km/h
274 08-10-2021 22:45:00 9.6 C 8.61 g/m*3 9.6 C 0 km/h
275 08-10-2021 22:50:00 9.6 C 8.61 g/m*3 9.6 C 1.6 km/h
Sensor: Nr:Datum:Temp:Abs-Feuchte:Windchill:Wind:
Aussen-T/F 276 08-10-2021 22:55:00 9.6 C 8.61 g/m*3 9.6 C 0 km/h
277 08-10-2021 23:00:00 9.6 C 8.61 g/m*3 9.6 C 0 km/h
278 08-10-2021 23:05:00 9.6 C 8.61 g/m*3 9.6 C 0 km/h
279 08-10-2021 23:10:00 9.6 C 8.61 g/m*3 9.6 C 0 km/h
280 08-10-2021 23:15:00 9.5 C 8.56 g/m*3 9.5 C 0 km/h
281 08-10-2021 23:20:00 9.4 C 8.5 g/m*3 9.4 C 0 km/h
282 08-10-2021 23:25:00 9.4 C 8.5 g/m*3 9.4 C 0 km/h
283 08-10-2021 23:30:00 9.4 C 8.5 g/m*3 9.4 C 3.2 km/h
284 08-10-2021 23:35:00 9.3 C 8.45 g/m*3 9.3 C 1.6 km/h
285 08-10-2021 23:40:00 9.3 C 8.54 g/m*3 9.3 C 1.6 km/h
286 08-10-2021 23:45:00 9.3 C 8.54 g/m*3 9.3 C 0 km/h
287 08-10-2021 23:50:00 9.3 C 8.54 g/m*3 9.3 C 0 km/h
288 08-10-2021 23:55:00 9.2 C 8.48 g/m*3 9.2 C 0 km/h

Legende:
   Min
   Max


Maximal/Minimal-Werte vom 08.10.2021 - 08.10.2021

Sensor Min Max Avg
Temp
(Aussen-T/F)
7.1 °C
08-10-2021  01:45:00
17.7 °C
08-10-2021  18:00:00
10.55 °C
Abs-Feuchte
(Aussen-T/F)
7.41 g/m*3
08-10-2021  01:45:00
11.99 g/m*3
08-10-2021  14:50:00
8.99 g/m*3
Windchill
(Aussen-T/F)
7.1 C
08-10-2021  01:45:00
17.7 C
08-10-2021  18:00:00
10.51 C

Die Daten stammen von einer Davis Vantage Pro 2 Wetter-Station und werden unter Linux mit der Software wview2wettercgi und aufbereitet. Alle Angaben erfolgen ohne Gewähr für ihre Vollständigkeit oder Richtigkeit.
Kontakt: Rainer Krienke krienke@uni-koblenz.de . Meine Webseiten an der Uni Koblenz oder privat.
Version: $Revision: 0.78 $